createdAt,value
2022-11-26T00:04:20.816Z,21.08
2022-11-26T00:24:20.964Z,21.08
2022-11-26T00:44:20.924Z,21.08
2022-11-26T01:04:20.794Z,21.08
2022-11-26T01:24:20.917Z,21.08
2022-11-26T01:44:20.369Z,21.08
2022-11-26T02:04:20.787Z,21.09
2022-11-26T02:24:20.892Z,21.09
2022-11-26T02:44:20.869Z,21.09
2022-11-26T03:04:21.016Z,21.09
2022-11-26T03:24:20.873Z,21.1
2022-11-26T03:44:20.883Z,21.1
2022-11-26T04:04:20.861Z,21.1
2022-11-26T04:24:20.856Z,21.1
2022-11-26T04:44:20.862Z,21.11
2022-11-26T05:04:20.863Z,21.11
2022-11-26T05:24:20.339Z,21.11
2022-11-26T05:44:20.870Z,21.12
2022-11-26T06:04:20.072Z,21.12
2022-11-26T06:24:20.327Z,21.12
2022-11-26T07:24:20.302Z,21.13
2022-11-26T07:44:20.830Z,21.13
2022-11-26T08:04:20.821Z,21.14
2022-11-26T09:04:20.794Z,21.13
2022-11-26T09:24:20.770Z,21.14
2022-11-26T10:24:20.724Z,21.15
2022-11-26T10:44:20.676Z,21.14
2022-11-26T11:04:20.660Z,21.14
2022-11-26T11:24:20.643Z,21.16
2022-11-26T12:04:20.611Z,21.18
2022-11-26T12:24:20.554Z,21.14
2022-11-26T13:24:20.361Z,21.17
2022-11-26T13:44:20.466Z,21.18
2022-11-26T14:44:20.288Z,21.17
2022-11-26T15:24:20.376Z,21.19
2022-11-26T15:44:20.223Z,21.18
2022-11-26T16:04:20.336Z,21.17
2022-11-26T16:24:20.332Z,21.17
2022-11-26T16:44:20.174Z,21.17
2022-11-26T17:04:20.303Z,21.19
2022-11-26T17:24:23.797Z,21.18
2022-11-26T17:44:20.272Z,21.18
2022-11-26T18:24:20.262Z,21.18
2022-11-26T18:44:20.231Z,21.19
2022-11-26T19:04:20.236Z,21.19
2022-11-26T19:44:20.205Z,21.19
2022-11-26T20:04:20.196Z,21.19
2022-11-26T20:24:20.175Z,21.19
2022-11-26T20:44:19.409Z,21.2
2022-11-26T21:04:20.172Z,21.2
2022-11-26T21:24:20.180Z,21.2
2022-11-26T22:04:20.147Z,21.21
2022-11-26T22:24:20.160Z,21.2
2022-11-26T22:44:19.608Z,21.2
2022-11-26T23:04:20.119Z,21.2
2022-11-26T23:24:19.348Z,21.21
2022-11-26T23:44:19.326Z,21.21
